Time;durP1;ratioP1;P1;durP2;ratioP2;P2;SDS_P1;SDS_P2;PMS_P1;PMS_P2;Temp;Humidity;BMP_temperature;BMP_pressure;BME280_temperature;BME280_humidity;BME280_pressure;Samples;Min_cycle;Max_cycle;Signal;HPM_P1;HPM_P2
2023/06/12 00:02:19;;;;;;;2.40;1.75;;;;;;;;;;5026091;28;20026;-74
2023/06/12 00:04:45;;;;;;;2.55;1.63;;;;;;;;;;5032855;28;20047;-74
2023/06/12 00:07:12;;;;;;;1.55;1.45;;;;;;;;;;5025240;28;20021;-75
2023/06/12 00:09:38;;;;;;;2.92;1.98;;;;;;;;;;5017057;28;20026;-74
2023/06/12 00:12:04;;;;;;;3.40;1.60;;;;;;;;;;5016194;28;20022;-75
2023/06/12 00:14:30;;;;;;;1.77;1.48;;;;;;;;;;5027201;28;20125;-74
2023/06/12 00:16:56;;;;;;;2.53;1.60;;;;;;;;;;5022078;28;20163;-75
2023/06/12 00:19:22;;;;;;;2.25;1.45;;;;;;;;;;5016771;28;20144;-74
2023/06/12 00:21:48;;;;;;;1.60;1.40;;;;;;;;;;5013270;28;20108;-75
2023/06/12 00:24:14;;;;;;;2.25;1.80;;;;;;;;;;5024610;28;20026;-75
2023/06/12 00:26:40;;;;;;;3.13;1.45;;;;;;;;;;5028616;28;20416;-75
2023/06/12 00:29:06;;;;;;;2.65;1.65;;;;;;;;;;5025845;28;20029;-74
2023/06/12 00:31:32;;;;;;;3.20;1.67;;;;;;;;;;5023815;28;20025;-75
2023/06/12 00:33:58;;;;;;;1.92;1.58;;;;;;;;;;5020516;28;20116;-74
2023/06/12 00:36:24;;;;;;;3.30;1.98;;;;;;;;;;5018342;28;20029;-75
2023/06/12 00:38:51;;;;;;;1.77;1.67;;;;;;;;;;5018786;28;20400;-74
2023/06/12 00:41:18;;;;;;;2.33;1.77;;;;;;;;;;5025643;28;20030;-75
2023/06/12 00:43:44;;;;;;;2.55;1.63;;;;;;;;;;5026214;28;20384;-74
2023/06/12 00:46:10;;;;;;;2.22;1.55;;;;;;;;;;5023174;28;20030;-74
2023/06/12 00:48:37;;;;;;;1.75;1.52;;;;;;;;;;5027900;28;20526;-75
2023/06/12 00:51:03;;;;;;;2.13;1.60;;;;;;;;;;5029222;28;20129;-75
2023/06/12 00:53:29;;;;;;;2.00;1.60;;;;;;;;;;5019076;28;20156;-75
2023/06/12 00:55:55;;;;;;;1.38;1.25;;;;;;;;;;5023508;28;20397;-75
2023/06/12 00:58:22;;;;;;;2.45;1.75;;;;;;;;;;5023582;28;20124;-75
2023/06/12 01:00:48;;;;;;;5.72;1.60;;;;;;;;;;5019704;28;20059;-75
2023/06/12 01:03:14;;;;;;;2.92;1.63;;;;;;;;;;5015688;28;20762;-75
2023/06/12 01:05:45;;;;;;;4.38;2.05;;;;;;;;;;5028488;28;20480;-75
2023/06/12 01:08:17;;;;;;;1.80;1.27;;;;;;;;;;5022534;28;20169;-75
2023/06/12 01:11:03;;;;;;;2.35;1.45;;;;;;;;;;5027247;28;20030;-75
2023/06/12 01:13:29;;;;;;;1.95;1.67;;;;;;;;;;5018779;28;20056;-75
2023/06/12 01:15:55;;;;;;;4.03;2.08;;;;;;;;;;5015445;28;20144;-75
2023/06/12 01:18:21;;;;;;;1.58;1.40;;;;;;;;;;5018394;28;20061;-75
2023/06/12 01:20:55;;;;;;;2.33;1.67;;;;;;;;;;5021957;28;20017;-75
2023/06/12 01:23:39;;;;;;;2.53;2.05;;;;;;;;;;5025816;28;20033;-75
2023/06/12 01:26:26;;;;;;;2.30;1.40;;;;;;;;;;5021861;28;20036;-75
2023/06/12 01:29:19;;;;;;;2.67;1.83;;;;;;;;;;5026686;28;20052;-75
2023/06/12 01:32:03;;;;;;;2.08;1.60;;;;;;;;;;5031354;28;20098;-75
2023/06/12 01:34:54;;;;;;;1.65;1.52;;;;;;;;;;5024272;28;20037;-76
2023/06/12 01:37:27;;;;;;;4.15;2.05;;;;;;;;;;5027574;28;20037;-78
2023/06/12 01:39:56;;;;;;;2.17;1.48;;;;;;;;;;5027796;28;20378;-76
2023/06/12 01:42:23;;;;;;;2.35;1.77;;;;;;;;;;5023796;28;20490;-79
2023/06/12 01:44:50;;;;;;;3.83;1.58;;;;;;;;;;5021396;28;20021;-76
2023/06/12 01:47:16;;;;;;;2.45;1.67;;;;;;;;;;5029202;28;20030;-83
2023/06/12 01:49:42;;;;;;;1.70;1.35;;;;;;;;;;5025277;28;20033;-76
2023/06/12 01:52:08;;;;;;;2.40;1.77;;;;;;;;;;5017925;28;20530;-77
2023/06/12 01:54:35;;;;;;;2.90;1.58;;;;;;;;;;5020037;28;20034;-78
2023/06/12 01:57:01;;;;;;;1.83;1.55;;;;;;;;;;5023588;28;20076;-78
2023/06/12 01:59:27;;;;;;;2.08;1.65;;;;;;;;;;5016497;28;20041;-76
2023/06/12 02:01:53;;;;;;;3.20;1.60;;;;;;;;;;5016023;28;20045;-78
2023/06/12 02:04:19;;;;;;;2.03;1.38;;;;;;;;;;5023663;28;20025;-80
2023/06/12 02:06:45;;;;;;;2.78;1.70;;;;;;;;;;5022595;28;20033;-81
2023/06/12 02:09:12;;;;;;;2.15;1.40;;;;;;;;;;5017087;28;20022;-82
2023/06/12 02:11:38;;;;;;;1.60;1.50;;;;;;;;;;5024877;28;20132;-83
2023/06/12 02:14:03;;;;;;;1.60;1.25;;;;;;;;;;5021972;28;20026;-79
2023/06/12 02:16:30;;;;;;;2.08;1.60;;;;;;;;;;5017741;28;20114;-80
2023/06/12 02:18:56;;;;;;;2.45;1.58;;;;;;;;;;5018647;28;20038;-78
2023/06/12 02:21:22;;;;;;;3.22;1.80;;;;;;;;;;5018966;28;20079;-82
2023/06/12 02:24:01;;;;;;;;;;;;;;;;;;;;;
2023/06/12 02:26:27;;;;;;;1.85;1.58;;;;;;;;;;5018607;28;20034;-82
2023/06/12 02:29:10;;;;;;;1.90;1.33;;;;;;;;;;4992778;28;20104;-83
2023/06/12 02:31:36;;;;;;;3.03;2.05;;;;;;;;;;5019561;28;20058;-82
2023/06/12 02:34:02;;;;;;;3.17;1.63;;;;;;;;;;5010700;28;20065;-82
2023/06/12 02:36:28;;;;;;;2.17;1.52;;;;;;;;;;5009880;28;20109;-82
2023/06/12 02:38:54;;;;;;;2.78;1.48;;;;;;;;;;5011464;28;20052;-82
2023/06/12 02:41:20;;;;;;;2.10;1.38;;;;;;;;;;5010493;28;20030;-80
2023/06/12 02:43:46;;;;;;;2.47;1.60;;;;;;;;;;5010291;28;20018;-82
2023/06/12 02:46:12;;;;;;;2.53;1.70;;;;;;;;;;5010470;28;20070;-81
2023/06/12 02:48:38;;;;;;;1.92;1.42;;;;;;;;;;5027727;28;20021;-82
2023/06/12 02:51:04;;;;;;;2.03;1.38;;;;;;;;;;5029861;28;20029;-81
2023/06/12 02:53:31;;;;;;;1.77;1.60;;;;;;;;;;5029630;28;20029;-83
2023/06/12 02:55:57;;;;;;;1.25;1.15;;;;;;;;;;5029763;28;20025;-82
2023/06/12 02:58:23;;;;;;;2.80;1.85;;;;;;;;;;5029003;28;20588;-82
2023/06/12 03:00:49;;;;;;;1.83;1.48;;;;;;;;;;5020936;28;20018;-81
2023/06/12 03:03:15;;;;;;;2.83;1.77;;;;;;;;;;5020517;28;20049;-81
2023/06/12 03:05:43;;;;;;;4.30;1.50;;;;;;;;;;5027595;28;20500;-81
2023/06/12 03:08:09;;;;;;;2.97;1.60;;;;;;;;;;5027922;28;20111;-80
2023/06/12 03:10:36;;;;;;;2.00;1.70;;;;;;;;;;5028602;28;20033;-81
2023/06/12 03:13:03;;;;;;;3.65;1.88;;;;;;;;;;5027413;28;20104;-80
2023/06/12 03:15:30;;;;;;;3.17;1.98;;;;;;;;;;5027102;28;20025;-80
2023/06/12 03:17:56;;;;;;;2.20;1.60;;;;;;;;;;5027356;28;20495;-81
2023/06/12 03:20:24;;;;;;;2.17;1.65;;;;;;;;;;5028205;28;20040;-80
2023/06/12 03:22:50;;;;;;;2.15;1.50;;;;;;;;;;5027130;28;20040;-81
2023/06/12 03:25:19;;;;;;;2.90;1.70;;;;;;;;;;5022780;28;20029;-80
2023/06/12 03:27:48;;;;;;;1.95;1.42;;;;;;;;;;5028167;28;20384;-81
2023/06/12 03:30:14;;;;;;;2.65;1.48;;;;;;;;;;5026713;28;20033;-80
2023/06/12 03:32:40;;;;;;;2.15;1.40;;;;;;;;;;5027068;28;20033;-80
2023/06/12 03:35:06;;;;;;;1.80;1.40;;;;;;;;;;5025943;28;20049;-80
2023/06/12 03:37:32;;;;;;;1.45;1.35;;;;;;;;;;5009766;28;20026;-81
2023/06/12 03:39:58;;;;;;;2.92;1.85;;;;;;;;;;5016020;28;20453;-80
2023/06/12 03:42:24;;;;;;;1.73;1.30;;;;;;;;;;5008435;28;20033;-81
2023/06/12 03:44:50;;;;;;;1.42;1.17;;;;;;;;;;5008548;28;20558;-81
2023/06/12 03:47:16;;;;;;;2.28;1.60;;;;;;;;;;5008653;28;20075;-80
2023/06/12 03:49:42;;;;;;;1.73;1.20;;;;;;;;;;5013998;28;20240;-80
2023/06/12 03:52:08;;;;;;;2.63;1.83;;;;;;;;;;5028313;28;20123;-80
2023/06/12 03:54:34;;;;;;;2.55;1.40;;;;;;;;;;5026401;28;20487;-80
2023/06/12 03:57:00;;;;;;;4.07;1.70;;;;;;;;;;5026887;28;20052;-80
2023/06/12 03:59:26;;;;;;;2.17;1.70;;;;;;;;;;5026561;28;20503;-80
2023/06/12 04:01:52;;;;;;;1.60;1.40;;;;;;;;;;5019694;28;20480;-80
2023/06/12 04:04:19;;;;;;;1.80;1.30;;;;;;;;;;5020083;28;20033;-81
2023/06/12 04:06:46;;;;;;;2.10;1.50;;;;;;;;;;5027094;28;20013;-81
2023/06/12 04:09:14;;;;;;;1.58;1.42;;;;;;;;;;5024382;28;20018;-80
2023/06/12 04:11:40;;;;;;;2.35;1.80;;;;;;;;;;5009813;28;20022;-80
2023/06/12 04:14:06;;;;;;;1.63;1.50;;;;;;;;;;5025678;28;20068;-80
2023/06/12 04:16:32;;;;;;;2.22;1.33;;;;;;;;;;5027381;28;20542;-80
2023/06/12 04:19:03;;;;;;;2.55;1.52;;;;;;;;;;5027547;28;20133;-81
2023/06/12 04:21:29;;;;;;;2.03;1.42;;;;;;;;;;5028185;28;20036;-80
2023/06/12 04:23:55;;;;;;;1.98;1.30;;;;;;;;;;5029383;28;20030;-80
2023/06/12 04:26:24;;;;;;;1.50;1.13;;;;;;;;;;5031373;28;20018;-81
2023/06/12 04:28:50;;;;;;;2.78;1.75;;;;;;;;;;5030904;28;20018;-81
2023/06/12 04:31:16;;;;;;;2.58;1.58;;;;;;;;;;5030911;28;20036;-81
2023/06/12 04:33:42;;;;;;;2.03;1.58;;;;;;;;;;5022051;28;20030;-81
2023/06/12 04:36:17;;;;;;;1.27;1.17;;;;;;;;;;5002901;28;20033;-82
2023/06/12 04:38:43;;;;;;;2.13;1.92;;;;;;;;;;5030868;28;20091;-82
2023/06/12 04:41:10;;;;;;;1.50;1.23;;;;;;;;;;5031175;28;20431;-82
2023/06/12 04:43:36;;;;;;;2.00;1.45;;;;;;;;;;5030878;28;20026;-82
2023/06/12 04:46:02;;;;;;;1.58;1.13;;;;;;;;;;5027377;28;20180;-82
2023/06/12 04:48:29;;;;;;;1.48;1.30;;;;;;;;;;5030322;28;20038;-81
2023/06/12 04:50:55;;;;;;;1.67;1.23;;;;;;;;;;5030752;28;20028;-81
2023/06/12 04:53:27;;;;;;;2.38;1.40;;;;;;;;;;5030831;28;20029;-82
2023/06/12 04:55:54;;;;;;;1.80;1.58;;;;;;;;;;5028878;28;20029;-82
2023/06/12 04:58:20;;;;;;;1.27;1.17;;;;;;;;;;5031071;28;20492;-81
2023/06/12 05:00:47;;;;;;;1.13;1.10;;;;;;;;;;5030721;28;20029;-82
2023/06/12 05:03:16;;;;;;;4.43;1.70;;;;;;;;;;5015830;28;20083;-81
2023/06/12 05:05:42;;;;;;;3.17;1.50;;;;;;;;;;5014528;28;20465;-80
2023/06/12 05:08:08;;;;;;;1.08;0.90;;;;;;;;;;5021431;28;20041;-82
2023/06/12 05:10:37;;;;;;;2.25;1.45;;;;;;;;;;5026170;28;20035;-82
2023/06/12 05:13:03;;;;;;;1.92;1.50;;;;;;;;;;5030360;28;20031;-82
2023/06/12 05:15:30;;;;;;;1.40;1.30;;;;;;;;;;5028714;28;20033;-82
2023/06/12 05:17:56;;;;;;;3.60;1.63;;;;;;;;;;5029888;28;20030;-81
2023/06/12 05:20:27;;;;;;;4.28;1.38;;;;;;;;;;5028020;28;20053;-82
2023/06/12 05:22:53;;;;;;;;;;;;;;;;;;5025945;28;20033;-82
2023/06/12 05:25:19;;;;;;;1.23;1.13;;;;;;;;;;5012694;28;19972;-82
2023/06/12 05:27:45;;;;;;;1.63;1.40;;;;;;;;;;5026634;28;20025;-80
2023/06/12 05:30:12;;;;;;;0.90;0.85;;;;;;;;;;5026279;28;20099;-83
2023/06/12 05:32:38;;;;;;;1.30;1.17;;;;;;;;;;5010903;28;20062;-81
2023/06/12 05:35:04;;;;;;;1.52;1.20;;;;;;;;;;5009899;28;20034;-81
2023/06/12 05:37:30;;;;;;;2.58;1.40;;;;;;;;;;5019321;28;20045;-81
2023/06/12 05:39:56;;;;;;;2.08;1.60;;;;;;;;;;5025409;28;20030;-82
2023/06/12 05:42:22;;;;;;;1.42;1.08;;;;;;;;;;5029464;28;20071;-83
2023/06/12 05:44:48;;;;;;;1.23;1.05;;;;;;;;;;5023371;28;20029;-82
2023/06/12 05:47:14;;;;;;;1.30;1.17;;;;;;;;;;5018121;28;20025;-83
2023/06/12 05:49:40;;;;;;;2.25;1.30;;;;;;;;;;5022480;28;20504;-83
2023/06/12 05:52:07;;;;;;;1.27;0.90;;;;;;;;;;5009525;28;20026;-82
2023/06/12 05:54:33;;;;;;;1.27;1.10;;;;;;;;;;5014880;28;20033;-79
2023/06/12 05:56:59;;;;;;;1.73;1.40;;;;;;;;;;5025954;28;20544;-87
2023/06/12 05:59:25;;;;;;;1.85;1.60;;;;;;;;;;5018692;28;20030;-82
2023/06/12 06:01:51;;;;;;;1.63;1.10;;;;;;;;;;5021151;28;20116;-82
2023/06/12 06:04:17;;;;;;;3.50;1.40;;;;;;;;;;5013383;28;20030;-82
2023/06/12 06:06:43;;;;;;;2.50;1.50;;;;;;;;;;5027683;28;20187;-84
2023/06/12 06:09:09;;;;;;;2.47;1.33;;;;;;;;;;5029103;28;20503;-80
2023/06/12 06:11:36;;;;;;;2.10;1.20;;;;;;;;;;5004388;28;20025;-79
2023/06/12 06:14:03;;;;;;;2.17;1.38;;;;;;;;;;5018847;28;20946;-72
2023/06/12 06:16:29;;;;;;;3.15;0.98;;;;;;;;;;5015790;28;20105;-75
2023/06/12 06:18:55;;;;;;;2.05;1.00;;;;;;;;;;5009044;28;20034;-75
2023/06/12 06:21:21;;;;;;;1.55;1.17;;;;;;;;;;5017488;28;20033;-76
2023/06/12 06:23:47;;;;;;;1.42;1.20;;;;;;;;;;5028656;28;20025;-76
2023/06/12 06:26:13;;;;;;;2.05;1.40;;;;;;;;;;5027204;28;20064;-77
2023/06/12 06:28:39;;;;;;;1.95;1.50;;;;;;;;;;5029026;28;20018;-77
2023/06/12 06:31:06;;;;;;;1.40;1.02;;;;;;;;;;5028627;28;20048;-74
2023/06/12 06:33:33;;;;;;;1.48;1.35;;;;;;;;;;5012124;28;20030;-76
2023/06/12 06:35:59;;;;;;;1.73;1.45;;;;;;;;;;5008920;28;20026;-76
2023/06/12 06:38:25;;;;;;;1.33;1.15;;;;;;;;;;5024851;28;20071;-76
2023/06/12 06:40:54;;;;;;;1.20;1.08;;;;;;;;;;5014164;28;20048;-76
2023/06/12 06:43:20;;;;;;;1.30;1.00;;;;;;;;;;5029297;28;20025;-76
2023/06/12 06:45:49;;;;;;;1.25;0.90;;;;;;;;;;5029073;28;20108;-76
2023/06/12 06:48:15;;;;;;;1.20;0.93;;;;;;;;;;5015349;28;20030;-76
2023/06/12 06:50:41;;;;;;;1.20;1.00;;;;;;;;;;5018587;28;20021;-76
2023/06/12 06:53:07;;;;;;;2.33;1.40;;;;;;;;;;5000417;28;20752;-76
2023/06/12 06:55:34;;;;;;;2.55;1.48;;;;;;;;;;5016414;28;20206;-78
2023/06/12 06:58:00;;;;;;;1.77;1.00;;;;;;;;;;5015948;28;20414;-77
2023/06/12 07:00:27;;;;;;;1.35;1.10;;;;;;;;;;5013176;28;20281;-76
2023/06/12 07:02:53;;;;;;;1.13;0.93;;;;;;;;;;5016206;28;20026;-77
2023/06/12 07:05:20;;;;;;;1.20;1.10;;;;;;;;;;5009094;28;20029;-77
2023/06/12 07:07:49;;;;;;;2.05;1.33;;;;;;;;;;5009028;28;20103;-76
2023/06/12 07:10:15;;;;;;;1.80;1.40;;;;;;;;;;5008955;28;20060;-76
2023/06/12 07:12:42;;;;;;;2.13;1.33;;;;;;;;;;5014487;28;20133;-77
2023/06/12 07:15:08;;;;;;;1.42;1.00;;;;;;;;;;5009099;28;20030;-76
2023/06/12 07:17:35;;;;;;;1.23;0.90;;;;;;;;;;5009009;28;20077;-77
2023/06/12 07:20:01;;;;;;;1.40;1.25;;;;;;;;;;5006393;28;20049;-77
2023/06/12 07:22:28;;;;;;;1.50;1.23;;;;;;;;;;5011149;28;20038;-77
2023/06/12 07:24:54;;;;;;;2.03;0.93;;;;;;;;;;5008543;28;20041;-77
2023/06/12 07:27:20;;;;;;;4.97;1.27;;;;;;;;;;5008757;28;20033;-77
2023/06/12 07:29:46;;;;;;;1.10;1.00;;;;;;;;;;5015047;28;20061;-77
2023/06/12 07:32:12;;;;;;;1.80;1.10;;;;;;;;;;5014540;28;20588;-77
2023/06/12 07:34:43;;;;;;;3.38;1.20;;;;;;;;;;5008791;28;20393;-77
2023/06/12 07:37:12;;;;;;;1.88;1.48;;;;;;;;;;5008061;28;20029;-77
2023/06/12 07:39:38;;;;;;;2.35;1.10;;;;;;;;;;5008679;28;20517;-78
2023/06/12 07:42:06;;;;;;;1.20;1.05;;;;;;;;;;5010102;28;20144;-76
2023/06/12 07:44:32;;;;;;;1.23;1.10;;;;;;;;;;5018916;28;20054;-77
2023/06/12 07:46:58;;;;;;;2.70;1.13;;;;;;;;;;5008319;28;20034;-77
2023/06/12 07:49:24;;;;;;;1.67;1.20;;;;;;;;;;5022707;28;20026;-83
2023/06/12 07:51:50;;;;;;;2.47;1.20;;;;;;;;;;5024200;28;20026;-81
2023/06/12 07:54:16;;;;;;;1.30;1.20;;;;;;;;;;5009834;28;20026;-81
2023/06/12 07:56:42;;;;;;;2.28;1.25;;;;;;;;;;5022760;28;20412;-79
2023/06/12 07:59:09;;;;;;;2.67;1.52;;;;;;;;;;5018617;28;20033;-79
2023/06/12 08:01:36;;;;;;;1.48;1.30;;;;;;;;;;5015255;28;20480;-78
2023/06/12 08:04:03;;;;;;;1.80;1.35;;;;;;;;;;5022607;28;20032;-79
2023/06/12 08:06:32;;;;;;;1.30;1.05;;;;;;;;;;5027793;28;20112;-82
2023/06/12 08:08:59;;;;;;;1.67;1.30;;;;;;;;;;5016160;28;20049;-80
2023/06/12 08:11:25;;;;;;;1.52;1.38;;;;;;;;;;5024254;28;20034;-77
2023/06/12 08:13:51;;;;;;;1.55;1.20;;;;;;;;;;5023102;28;20511;-80
2023/06/12 08:16:18;;;;;;;1.73;1.27;;;;;;;;;;5014404;28;20465;-78
2023/06/12 08:18:44;;;;;;;1.98;1.45;;;;;;;;;;5011628;28;20497;-78
2023/06/12 08:21:13;;;;;;;1.98;1.38;;;;;;;;;;5014142;28;20088;-77
2023/06/12 08:23:39;;;;;;;1.48;1.20;;;;;;;;;;5028830;28;20026;-77
2023/06/12 08:26:05;;;;;;;1.45;1.02;;;;;;;;;;5030284;28;20029;-79
2023/06/12 08:28:34;;;;;;;2.17;1.25;;;;;;;;;;5028232;28;20078;-78
2023/06/12 08:31:01;;;;;;;2.47;1.45;;;;;;;;;;5018057;28;20029;-82
2023/06/12 08:33:27;;;;;;;1.40;1.20;;;;;;;;;;5016049;28;20104;-82
2023/06/12 08:35:53;;;;;;;1.85;1.30;;;;;;;;;;5028660;28;20682;-81
2023/06/12 08:38:19;;;;;;;2.05;1.50;;;;;;;;;;5029899;28;20440;-81
2023/06/12 08:40:46;;;;;;;1.77;1.25;;;;;;;;;;5025085;28;20034;-81
2023/06/12 08:43:12;;;;;;;2.95;1.38;;;;;;;;;;5016589;28;20034;-85
2023/06/12 08:45:43;;;;;;;2.47;1.40;;;;;;;;;;4999886;28;20316;-74
2023/06/12 08:48:10;;;;;;;1.60;1.10;;;;;;;;;;5023499;28;20033;-79
2023/06/12 08:50:36;;;;;;;1.27;1.00;;;;;;;;;;5023147;28;21737;-80
2023/06/12 08:53:04;;;;;;;1.38;1.10;;;;;;;;;;5024042;28;20065;-75
2023/06/12 08:55:32;;;;;;;1.50;1.10;;;;;;;;;;5028457;28;20032;-76
2023/06/12 08:57:59;;;;;;;1.52;1.20;;;;;;;;;;5031001;28;20033;-74
2023/06/12 09:01:07;;;;;;;1.77;1.30;;;;;;;;;;5025061;28;20025;-75
2023/06/12 09:03:35;;;;;;;1.63;1.15;;;;;;;;;;5007466;28;20030;-76
2023/06/12 09:06:05;;;;;;;2.85;1.67;;;;;;;;;;5023585;28;20048;-76
2023/06/12 09:08:32;;;;;;;2.22;1.60;;;;;;;;;;5030515;28;20026;-76
2023/06/12 09:10:58;;;;;;;1.88;0.90;;;;;;;;;;5024119;28;20500;-78
2023/06/12 09:13:24;;;;;;;2.00;1.30;;;;;;;;;;5026226;28;20029;-79
2023/06/12 09:15:52;;;;;;;1.52;1.20;;;;;;;;;;5037518;28;20026;-79
2023/06/12 09:18:19;;;;;;;2.10;1.30;;;;;;;;;;5032765;28;20045;-79
2023/06/12 09:20:45;;;;;;;1.98;1.30;;;;;;;;;;5036090;28;20025;-80
2023/06/12 09:23:13;;;;;;;0.98;0.90;;;;;;;;;;5031275;28;20032;-79
2023/06/12 09:25:40;;;;;;;1.55;1.42;;;;;;;;;;5029393;28;20559;-79
2023/06/12 09:28:08;;;;;;;6.90;1.52;;;;;;;;;;5037531;28;20026;-79
2023/06/12 09:30:38;;;;;;;1.58;1.45;;;;;;;;;;5035097;28;20399;-79
2023/06/12 09:33:05;;;;;;;1.73;1.48;;;;;;;;;;5033259;28;20067;-79
2023/06/12 09:35:31;;;;;;;2.08;1.27;;;;;;;;;;5037398;28;20021;-79
2023/06/12 09:37:57;;;;;;;2.70;1.38;;;;;;;;;;5035268;28;20044;-79
2023/06/12 09:40:24;;;;;;;3.15;1.60;;;;;;;;;;5036481;28;20048;-80
2023/06/12 09:42:50;;;;;;;2.83;1.17;;;;;;;;;;5032442;28;20029;-79
2023/06/12 09:45:21;;;;;;;3.42;1.15;;;;;;;;;;5032322;28;20025;-78
2023/06/12 09:47:48;;;;;;;1.70;1.25;;;;;;;;;;5035081;28;20081;-79
2023/06/12 09:50:14;;;;;;;1.40;1.15;;;;;;;;;;5033551;28;20033;-80
2023/06/12 09:52:41;;;;;;;14.02;1.58;;;;;;;;;;5030483;28;20029;-79
2023/06/12 09:55:08;;;;;;;1.45;1.23;;;;;;;;;;5034438;28;20141;-79
2023/06/12 09:57:36;;;;;;;1.63;1.15;;;;;;;;;;5037247;28;20385;-78
2023/06/12 10:00:05;;;;;;;1.70;1.20;;;;;;;;;;5032050;28;20506;-78
2023/06/12 10:02:31;;;;;;;1.27;1.02;;;;;;;;;;5031609;28;20130;-78
2023/06/12 10:05:08;;;;;;;1.38;0.95;;;;;;;;;;5026340;28;20061;-79
2023/06/12 10:07:41;;;;;;;1.50;1.40;;;;;;;;;;5009101;28;20080;-78
2023/06/12 10:10:07;;;;;;;1.35;1.25;;;;;;;;;;5028163;28;20036;-79
2023/06/12 10:12:34;;;;;;;4.00;1.30;;;;;;;;;;5029899;28;20056;-79
2023/06/12 10:15:03;;;;;;;2.38;1.65;;;;;;;;;;5025961;28;20025;-79
2023/06/12 10:17:30;;;;;;;3.25;1.42;;;;;;;;;;5029119;28;20488;-79
2023/06/12 10:19:57;;;;;;;1.23;1.13;;;;;;;;;;5028535;28;20057;-79
2023/06/12 10:22:23;;;;;;;3.05;2.13;;;;;;;;;;5036395;28;20033;-79
2023/06/12 10:24:49;;;;;;;1.02;0.95;;;;;;;;;;5034170;28;20069;-80
2023/06/12 10:27:16;;;;;;;1.90;1.40;;;;;;;;;;5031116;28;20383;-79
2023/06/12 10:29:42;;;;;;;2.25;1.60;;;;;;;;;;5033602;28;20033;-79
2023/06/12 10:32:11;;;;;;;2.20;1.33;;;;;;;;;;5035442;28;20024;-79
2023/06/12 10:34:41;;;;;;;1.80;1.40;;;;;;;;;;5036060;28;20399;-79
2023/06/12 10:37:24;;;;;;;3.20;1.40;;;;;;;;;;5034129;28;20025;-79
2023/06/12 10:40:10;;;;;;;2.00;1.30;;;;;;;;;;5031337;28;20403;-79
2023/06/12 10:42:48;;;;;;;1.38;1.20;;;;;;;;;;5036980;28;20514;-80
2023/06/12 10:45:33;;;;;;;2.60;1.10;;;;;;;;;;5034566;28;20798;-79
2023/06/12 10:48:05;;;;;;;1.48;1.20;;;;;;;;;;5032803;28;20021;-80
2023/06/12 10:50:32;;;;;;;2.15;1.17;;;;;;;;;;5033183;28;20029;-80
2023/06/12 10:53:05;;;;;;;1.63;1.10;;;;;;;;;;5030226;28;20092;-79
2023/06/12 10:55:32;;;;;;;1.58;1.17;;;;;;;;;;5015474;28;20392;-78
2023/06/12 10:58:03;;;;;;;1.58;1.30;;;;;;;;;;5025085;28;20116;-78
2023/06/12 11:00:36;;;;;;;2.17;1.25;;;;;;;;;;5019633;28;20017;-78
2023/06/12 11:03:04;;;;;;;1.52;1.08;;;;;;;;;;5028967;28;20048;-75
2023/06/12 11:05:31;;;;;;;2.58;1.20;;;;;;;;;;5031116;28;20427;-79
2023/06/12 11:08:01;;;;;;;1.13;0.93;;;;;;;;;;5034796;28;20310;-79
2023/06/12 11:10:27;;;;;;;1.63;1.27;;;;;;;;;;5031529;28;20048;-80
2023/06/12 11:12:54;;;;;;;2.17;1.38;;;;;;;;;;5035270;28;20020;-79
2023/06/12 11:15:21;;;;;;;2.15;1.38;;;;;;;;;;5032399;28;20824;-79
2023/06/12 11:17:47;;;;;;;1.25;1.05;;;;;;;;;;5036000;28;20040;-79
2023/06/12 11:20:14;;;;;;;5.28;1.25;;;;;;;;;;5034196;28;20049;-79
2023/06/12 11:22:40;;;;;;;1.20;1.10;;;;;;;;;;5026978;28;20040;-78
2023/06/12 11:25:06;;;;;;;3.00;1.60;;;;;;;;;;5036244;28;20090;-79
2023/06/12 11:27:36;;;;;;;1.23;1.10;;;;;;;;;;5031517;28;20026;-79
2023/06/12 11:30:14;;;;;;;2.20;1.13;;;;;;;;;;5033520;28;20030;-79
2023/06/12 11:33:02;;;;;;;4.10;1.55;;;;;;;;;;5033704;28;20428;-78
2023/06/12 11:35:27;;;;;;;2.83;1.55;;;;;;;;;;5035660;28;20514;-80
2023/06/12 11:37:56;;;;;;;2.15;1.48;;;;;;;;;;5038704;28;20052;-80
2023/06/12 11:40:26;;;;;;;2.03;1.50;;;;;;;;;;5032715;28;20475;-79
2023/06/12 11:42:55;;;;;;;2.23;1.33;;;;;;;;;;5035926;28;20061;-80
2023/06/12 11:45:21;;;;;;;2.70;1.63;;;;;;;;;;5035852;28;20664;-80
2023/06/12 11:47:48;;;;;;;1.98;1.23;;;;;;;;;;5037650;28;20059;-80
2023/06/12 11:50:16;;;;;;;1.77;1.30;;;;;;;;;;5035916;28;20116;-79
2023/06/12 11:52:42;;;;;;;2.03;1.42;;;;;;;;;;5039728;28;20025;-80
2023/06/12 11:55:10;;;;;;;2.72;1.65;;;;;;;;;;5036129;28;20030;-80
2023/06/12 11:57:36;;;;;;;1.40;1.30;;;;;;;;;;5035009;28;20102;-80
2023/06/12 12:00:12;;;;;;;2.30;1.90;;;;;;;;;;5037073;28;20404;-80
2023/06/12 12:02:41;;;;;;;3.83;1.48;;;;;;;;;;5035777;28;20392;-80
2023/06/12 12:05:09;;;;;;;2.72;2.10;;;;;;;;;;5032819;28;20400;-79
2023/06/12 12:07:38;;;;;;;1.92;1.58;;;;;;;;;;5031242;28;20476;-79
2023/06/12 12:10:08;;;;;;;3.05;1.80;;;;;;;;;;5037775;28;20033;-79
2023/06/12 12:12:58;;;;;;;3.17;1.77;;;;;;;;;;5035174;28;20033;-79
2023/06/12 12:15:24;;;;;;;1.67;1.52;;;;;;;;;;5033753;28;20024;-79
2023/06/12 12:17:50;;;;;;;3.28;1.77;;;;;;;;;;5037523;28;20033;-79
2023/06/12 12:20:21;;;;;;;3.63;1.60;;;;;;;;;;5038017;28;20067;-79
2023/06/12 12:22:50;;;;;;;3.10;1.63;;;;;;;;;;5035308;28;20038;-79
2023/06/12 12:25:18;;;;;;;3.17;1.60;;;;;;;;;;5033661;28;20056;-83
2023/06/12 12:27:45;;;;;;;1.95;1.58;;;;;;;;;;5038817;28;20029;-80
2023/06/12 12:30:14;;;;;;;2.03;1.65;;;;;;;;;;5035147;28;20487;-78
2023/06/12 12:32:40;;;;;;;4.68;1.77;;;;;;;;;;5036338;28;20064;-79
2023/06/12 12:35:06;;;;;;;5.13;1.60;;;;;;;;;;5035484;28;20492;-78
2023/06/12 12:37:32;;;;;;;2.95;1.50;;;;;;;;;;5029419;28;20033;-78
2023/06/12 12:39:58;;;;;;;2.15;1.55;;;;;;;;;;5037913;28;20056;-77
2023/06/12 12:42:24;;;;;;;2.55;1.60;;;;;;;;;;5037523;28;20404;-78
2023/06/12 12:44:51;;;;;;;2.92;1.67;;;;;;;;;;5034887;28;20036;-80
2023/06/12 12:47:17;;;;;;;2.20;1.83;;;;;;;;;;5020248;28;20087;-80
2023/06/12 12:49:43;;;;;;;1.73;1.50;;;;;;;;;;5036179;28;20048;-79
2023/06/12 12:52:09;;;;;;;3.67;1.55;;;;;;;;;;5035609;28;20029;-77
2023/06/12 12:54:38;;;;;;;1.40;1.30;;;;;;;;;;5038165;28;20602;-80
2023/06/12 12:57:05;;;;;;;1.77;1.67;;;;;;;;;;5032616;28;20591;-74
2023/06/12 12:59:31;;;;;;;1.73;1.45;;;;;;;;;;5036199;28;20026;-76
2023/06/12 13:01:56;;;;;;;1.70;1.33;;;;;;;;;;5035324;28;20552;-75
2023/06/12 13:04:22;;;;;;;1.58;1.48;;;;;;;;;;5035378;28;20380;-79
2023/06/12 13:06:48;;;;;;;1.92;1.67;;;;;;;;;;5035505;28;20709;-77
2023/06/12 13:09:14;;;;;;;3.10;1.50;;;;;;;;;;5032946;28;20488;-78
2023/06/12 13:11:41;;;;;;;2.17;1.73;;;;;;;;;;5036273;28;20037;-77
2023/06/12 13:14:13;;;;;;;1.90;1.50;;;;;;;;;;5032973;28;20667;-81
2023/06/12 13:16:42;;;;;;;7.20;1.65;;;;;;;;;;5033463;28;20029;-77
2023/06/12 13:19:08;;;;;;;1.30;1.20;;;;;;;;;;5035066;28;20049;-76
2023/06/12 13:21:40;;;;;;;1.48;1.38;;;;;;;;;;5037000;28;20084;-77
2023/06/12 13:24:09;;;;;;;1.77;1.20;;;;;;;;;;5035284;28;20030;-76
2023/06/12 13:26:35;;;;;;;2.83;1.33;;;;;;;;;;5017625;28;20434;-76
2023/06/12 13:29:02;;;;;;;3.95;1.92;;;;;;;;;;5027323;28;20044;-77
2023/06/12 13:31:28;;;;;;;2.95;1.30;;;;;;;;;;5017796;28;20034;-77
2023/06/12 13:33:56;;;;;;;3.42;1.50;;;;;;;;;;5019344;28;20034;-82
2023/06/12 13:36:23;;;;;;;4.63;1.60;;;;;;;;;;5014633;28;20100;-77
2023/06/12 13:38:49;;;;;;;1.90;1.60;;;;;;;;;;5018300;28;20041;-76
2023/06/12 13:41:16;;;;;;;4.57;1.92;;;;;;;;;;5029443;28;20040;-77
2023/06/12 13:43:42;;;;;;;1.70;1.60;;;;;;;;;;5030436;28;20026;-76
2023/06/12 13:46:08;;;;;;;3.22;2.05;;;;;;;;;;5029388;28;20036;-75
2023/06/12 13:48:34;;;;;;;1.67;1.48;;;;;;;;;;5024267;28;20024;-76
2023/06/12 13:51:00;;;;;;;3.63;1.40;;;;;;;;;;5020471;28;20037;-76
2023/06/12 13:53:27;;;;;;;2.67;1.65;;;;;;;;;;5027660;28;20041;-76
2023/06/12 13:55:53;;;;;;;4.18;2.00;;;;;;;;;;5020448;28;20715;-76
2023/06/12 13:58:19;;;;;;;3.17;1.52;;;;;;;;;;5018668;28;20029;-77
2023/06/12 14:00:46;;;;;;;2.47;1.42;;;;;;;;;;5030610;28;20048;-78
2023/06/12 14:03:12;;;;;;;5.45;2.35;;;;;;;;;;5009334;28;20132;-79
2023/06/12 14:05:38;;;;;;;2.13;1.40;;;;;;;;;;5023411;28;20076;-78
2023/06/12 14:08:04;;;;;;;2.50;1.63;;;;;;;;;;5036075;28;20036;-76
2023/06/12 14:10:31;;;;;;;2.53;1.70;;;;;;;;;;5036460;28;20175;-77
2023/06/12 14:12:57;;;;;;;3.00;1.60;;;;;;;;;;5030111;28;20068;-76
2023/06/12 14:15:23;;;;;;;7.18;1.75;;;;;;;;;;5032097;28;20041;-77
2023/06/12 14:17:49;;;;;;;2.20;1.77;;;;;;;;;;5032213;28;20043;-76
2023/06/12 14:20:15;;;;;;;3.92;1.60;;;;;;;;;;5036490;28;20496;-76
2023/06/12 14:22:44;;;;;;;3.05;1.85;;;;;;;;;;5032380;28;20092;-77
2023/06/12 14:25:10;;;;;;;2.78;1.45;;;;;;;;;;5031711;28;20427;-77
2023/06/12 14:27:36;;;;;;;1.45;1.25;;;;;;;;;;5034246;28;20026;-75
2023/06/12 14:30:02;;;;;;;2.20;1.63;;;;;;;;;;5031853;28;20029;-77
2023/06/12 14:32:28;;;;;;;2.17;1.63;;;;;;;;;;5031334;28;20126;-76
2023/06/12 14:34:55;;;;;;;2.08;1.55;;;;;;;;;;5032881;28;20475;-77
2023/06/12 14:37:20;;;;;;;1.95;1.70;;;;;;;;;;5034282;28;20171;-77
2023/06/12 14:39:46;;;;;;;2.20;1.70;;;;;;;;;;5034747;28;20029;-76
2023/06/12 14:42:13;;;;;;;3.22;1.92;;;;;;;;;;5035184;28;20039;-76
2023/06/12 14:44:42;;;;;;;2.03;1.65;;;;;;;;;;5034572;28;20035;-77
2023/06/12 14:47:08;;;;;;;3.13;1.73;;;;;;;;;;5028837;28;20018;-75